createdAt,value
2022-08-28T00:00:17.296Z,4.47
2022-08-28T00:02:45.701Z,3.40
2022-08-28T00:05:13.768Z,3.57
2022-08-28T00:07:44.308Z,3.40
2022-08-28T00:10:16.806Z,3.30
2022-08-28T00:12:44.828Z,3.53
2022-08-28T00:15:15.558Z,3.50
2022-08-28T00:17:42.297Z,3.10
2022-08-28T00:20:10.973Z,2.70
2022-08-28T00:22:38.820Z,3.07
2022-08-28T00:25:06.926Z,3.40
2022-08-28T00:27:52.226Z,3.63
2022-08-28T00:30:32.101Z,3.23
2022-08-28T00:33:01.785Z,3.67
2022-08-28T00:35:28.597Z,3.60
2022-08-28T00:37:55.354Z,3.47
2022-08-28T00:40:28.975Z,3.33
2022-08-28T00:43:01.362Z,3.30
2022-08-28T00:45:28.367Z,3.50
2022-08-28T00:47:54.943Z,3.40
2022-08-28T00:50:23.912Z,3.67
2022-08-28T00:52:58.434Z,3.33
2022-08-28T00:55:26.980Z,3.57
2022-08-28T00:57:56.786Z,3.53
2022-08-28T01:00:36.387Z,3.33
2022-08-28T01:03:05.609Z,3.57
2022-08-28T01:05:34.188Z,3.47
2022-08-28T01:08:00.959Z,3.70
2022-08-28T01:10:29.972Z,3.70
2022-08-28T01:12:57.544Z,3.40
2022-08-28T01:15:30.263Z,3.33
2022-08-28T01:18:08.492Z,3.53
2022-08-28T01:20:37.736Z,3.47
2022-08-28T01:23:15.322Z,3.33
2022-08-28T01:25:42.901Z,3.97
2022-08-28T01:28:13.062Z,3.97
2022-08-28T01:30:46.125Z,4.00
2022-08-28T01:33:14.847Z,4.50
2022-08-28T01:35:47.893Z,4.00
2022-08-28T01:38:20.211Z,4.20
2022-08-28T01:40:49.741Z,4.23
2022-08-28T01:43:19.820Z,4.20
2022-08-28T01:45:56.101Z,4.67
2022-08-28T01:48:26.032Z,4.40
2022-08-28T01:50:52.891Z,4.57
2022-08-28T01:53:24.928Z,4.33
2022-08-28T01:55:53.337Z,4.80
2022-08-28T01:58:20.662Z,4.70
2022-08-28T02:00:47.531Z,4.50
2022-08-28T02:03:14.421Z,4.70
2022-08-28T02:05:41.543Z,4.43
2022-08-28T02:08:08.873Z,5.10
2022-08-28T02:10:37.589Z,4.33
2022-08-28T02:13:06.017Z,4.50
2022-08-28T02:15:34.777Z,4.80
2022-08-28T02:18:01.514Z,4.70
2022-08-28T02:20:29.091Z,5.07
2022-08-28T02:22:57.733Z,4.93
2022-08-28T02:25:24.817Z,4.60
2022-08-28T02:27:51.468Z,4.80
2022-08-28T02:30:18.498Z,4.87
2022-08-28T02:32:46.197Z,4.57
2022-08-28T02:35:15.483Z,4.53
2022-08-28T02:37:44.264Z,4.70
2022-08-28T02:40:14.199Z,4.63
2022-08-28T02:42:41.970Z,4.53
2022-08-28T02:45:11.850Z,4.50
2022-08-28T02:47:40.062Z,4.17
2022-08-28T02:50:07.903Z,4.37
2022-08-28T02:52:37.797Z,4.40
2022-08-28T02:55:09.282Z,4.60
2022-08-28T02:57:35.978Z,4.60
2022-08-28T03:00:05.846Z,4.10
2022-08-28T03:02:32.625Z,4.77
2022-08-28T03:05:00.509Z,4.67
2022-08-28T03:07:28.251Z,4.50
2022-08-28T03:09:55.337Z,4.13
2022-08-28T03:12:24.169Z,4.23
2022-08-28T03:14:54.041Z,4.67
2022-08-28T03:17:22.221Z,4.50
2022-08-28T03:19:50.202Z,4.67
2022-08-28T03:22:18.751Z,4.33
2022-08-28T03:24:45.363Z,4.53
2022-08-28T03:27:11.941Z,4.60
2022-08-28T03:29:38.800Z,4.23
2022-08-28T03:32:05.517Z,4.50
2022-08-28T03:34:33.544Z,4.63
2022-08-28T03:37:01.308Z,4.90
2022-08-28T03:39:28.031Z,4.63
2022-08-28T03:41:54.976Z,4.93
2022-08-28T03:44:21.684Z,4.80
2022-08-28T03:46:48.263Z,5.03
2022-08-28T03:49:15.201Z,4.80
2022-08-28T03:51:43.161Z,4.83
2022-08-28T03:54:09.754Z,4.63
2022-08-28T03:56:36.350Z,4.63
2022-08-28T03:59:04.355Z,5.23
2022-08-28T04:01:31.172Z,5.27
2022-08-28T04:03:57.813Z,5.00
2022-08-28T04:06:24.740Z,5.17
2022-08-28T04:08:51.390Z,5.03
2022-08-28T04:11:18.609Z,5.30
2022-08-28T04:13:45.357Z,5.27
2022-08-28T04:16:16.745Z,5.10
2022-08-28T04:18:43.843Z,5.07
2022-08-28T04:21:14.178Z,5.13
2022-08-28T04:23:43.298Z,4.83
2022-08-28T04:26:12.519Z,5.33
2022-08-28T04:28:39.182Z,5.60
2022-08-28T04:31:07.978Z,5.40
2022-08-28T04:33:35.775Z,5.70
2022-08-28T04:36:05.806Z,4.90
2022-08-28T04:38:32.414Z,5.30
2022-08-28T04:40:59.029Z,5.00
2022-08-28T04:43:25.696Z,4.93
2022-08-28T04:45:52.310Z,5.10
2022-08-28T04:48:19.583Z,5.50
2022-08-28T04:50:47.896Z,5.30
2022-08-28T04:53:17.148Z,5.07
2022-08-28T04:55:54.532Z,5.40
2022-08-28T04:58:24.270Z,4.97
2022-08-28T05:00:52.095Z,5.10
2022-08-28T05:03:18.864Z,4.93
2022-08-28T05:05:47.598Z,5.03
2022-08-28T05:08:16.230Z,4.93
2022-08-28T05:10:43.317Z,5.37
2022-08-28T05:13:11.510Z,5.07
2022-08-28T05:15:49.850Z,5.30
2022-08-28T05:18:18.345Z,5.10
2022-08-28T05:20:46.658Z,5.20
2022-08-28T05:23:14.664Z,5.37
2022-08-28T05:25:44.703Z,5.70
2022-08-28T05:28:12.561Z,5.63
2022-08-28T05:30:40.651Z,5.03
2022-08-28T05:33:08.650Z,5.63
2022-08-28T05:35:38.262Z,4.80
2022-08-28T05:38:05.713Z,5.23
2022-08-28T05:40:32.505Z,5.40
2022-08-28T05:42:59.176Z,5.47
2022-08-28T05:45:25.860Z,5.10
2022-08-28T05:47:52.759Z,4.63
2022-08-28T05:50:19.782Z,4.47
2022-08-28T05:52:46.625Z,4.77
2022-08-28T05:55:13.590Z,4.83
2022-08-28T05:57:40.895Z,4.97
2022-08-28T06:00:12.781Z,4.75
2022-08-28T06:02:42.555Z,5.00
2022-08-28T06:05:13.079Z,4.50
2022-08-28T06:07:41.081Z,4.88
2022-08-28T06:10:10.501Z,4.80
2022-08-28T06:12:37.695Z,4.75
2022-08-28T06:15:05.583Z,4.72
2022-08-28T06:17:32.171Z,5.05
2022-08-28T06:19:58.871Z,4.93
2022-08-28T06:22:25.441Z,5.15
2022-08-28T06:24:52.051Z,5.30
2022-08-28T06:27:18.659Z,5.05
2022-08-28T06:29:45.810Z,5.20
2022-08-28T06:32:13.331Z,4.95
2022-08-28T06:34:40.070Z,5.00
2022-08-28T06:37:07.926Z,4.63
2022-08-28T06:39:34.529Z,5.22
2022-08-28T06:42:01.371Z,4.60
2022-08-28T06:44:28.028Z,4.30
2022-08-28T06:46:55.004Z,4.68
2022-08-28T06:49:22.188Z,4.30
2022-08-28T06:51:49.019Z,4.50
2022-08-28T06:54:22.378Z,4.22
2022-08-28T06:56:50.933Z,4.90
2022-08-28T06:59:17.511Z,4.85
2022-08-28T07:01:44.235Z,4.93
2022-08-28T07:04:12.215Z,4.85
2022-08-28T07:06:40.948Z,4.45
2022-08-28T07:09:09.503Z,4.65
2022-08-28T07:11:37.010Z,4.43
2022-08-28T07:14:04.058Z,4.22
2022-08-28T07:16:33.182Z,4.53
2022-08-28T07:19:00.002Z,4.30
2022-08-28T07:21:26.995Z,4.45
2022-08-28T07:23:54.936Z,4.60
2022-08-28T07:26:23.664Z,4.50
2022-08-28T07:28:51.759Z,5.18
2022-08-28T07:31:26.754Z,5.13
2022-08-28T07:33:54.817Z,4.82
2022-08-28T07:36:28.888Z,4.68
2022-08-28T07:38:58.020Z,4.78
2022-08-28T07:41:27.383Z,4.50
2022-08-28T07:44:13.035Z,4.80
2022-08-28T07:46:40.351Z,4.57
2022-08-28T07:49:08.527Z,4.38
2022-08-28T07:51:35.754Z,4.90
2022-08-28T07:54:04.073Z,4.65
2022-08-28T07:56:31.383Z,4.57
2022-08-28T07:58:58.950Z,4.53
2022-08-28T08:01:27.391Z,4.63
2022-08-28T08:04:01.914Z,5.03
2022-08-28T08:06:33.211Z,4.70
2022-08-28T08:09:02.273Z,4.68
2022-08-28T08:11:32.431Z,5.20
2022-08-28T08:14:05.497Z,5.32
2022-08-28T08:16:34.985Z,5.40
2022-08-28T08:19:02.000Z,5.40
2022-08-28T08:21:30.438Z,5.45
2022-08-28T08:23:58.044Z,5.90
2022-08-28T08:26:27.952Z,5.53
2022-08-28T08:28:55.160Z,5.20
2022-08-28T08:31:25.010Z,5.30
2022-08-28T08:33:54.130Z,6.05
2022-08-28T08:36:22.589Z,5.57
2022-08-28T08:38:49.641Z,5.70
2022-08-28T08:41:32.013Z,5.80
2022-08-28T08:44:07.779Z,6.03
2022-08-28T08:47:08.619Z,6.20
2022-08-28T08:49:41.994Z,6.63
2022-08-28T08:52:11.283Z,7.03
2022-08-28T08:54:48.971Z,6.38
2022-08-28T08:57:15.709Z,7.15
2022-08-28T08:59:42.522Z,7.57
2022-08-28T09:02:17.305Z,7.93
2022-08-28T09:04:50.479Z,7.90
2022-08-28T09:07:20.735Z,8.30
2022-08-28T09:09:50.671Z,7.97
2022-08-28T09:12:20.055Z,8.25
2022-08-28T09:15:11.325Z,8.85
2022-08-28T09:17:48.105Z,7.95
2022-08-28T09:20:21.556Z,8.48
2022-08-28T09:22:59.209Z,8.95
2022-08-28T09:25:44.278Z,8.80
2022-08-28T09:28:15.669Z,8.65
2022-08-28T09:30:43.698Z,8.80
2022-08-28T09:33:10.380Z,9.07
2022-08-28T09:35:37.645Z,9.55
2022-08-28T09:38:19.147Z,8.85
2022-08-28T09:41:04.435Z,9.50
2022-08-28T09:43:31.511Z,8.45
2022-08-28T09:46:00.052Z,8.20
2022-08-28T09:48:40.838Z,8.35
2022-08-28T09:51:10.487Z,7.57
2022-08-28T09:53:56.275Z,7.82
2022-08-28T09:56:34.729Z,7.32
2022-08-28T09:59:06.572Z,7.03
2022-08-28T10:01:39.054Z,6.90
2022-08-28T10:04:11.748Z,7.03
2022-08-28T10:06:39.107Z,6.60
2022-08-28T10:09:18.096Z,6.35
2022-08-28T10:11:54.070Z,6.63
2022-08-28T10:14:32.585Z,6.20
2022-08-28T10:17:38.049Z,5.75
2022-08-28T10:20:20.197Z,5.75
2022-08-28T10:23:04.716Z,5.00
2022-08-28T10:25:42.018Z,4.90
2022-08-28T10:28:18.250Z,5.30
2022-08-28T10:31:06.620Z,5.30
2022-08-28T10:33:58.826Z,4.18
2022-08-28T10:36:34.582Z,4.03
2022-08-28T10:39:10.671Z,2.60
2022-08-28T10:41:44.100Z,2.38
2022-08-28T10:44:15.858Z,2.25
2022-08-28T10:46:45.256Z,2.03
2022-08-28T10:49:28.129Z,2.20
2022-08-28T10:52:07.640Z,2.00
2022-08-28T10:54:44.488Z,2.20
2022-08-28T10:57:23.416Z,2.10
2022-08-28T10:59:52.672Z,1.70
2022-08-28T11:02:22.716Z,1.90
2022-08-28T11:04:49.679Z,1.63
2022-08-28T11:07:29.309Z,1.75
2022-08-28T11:09:56.642Z,1.75
2022-08-28T11:12:36.345Z,1.70
2022-08-28T11:15:23.147Z,1.85
2022-08-28T11:17:50.294Z,2.13
2022-08-28T11:20:26.144Z,2.25
2022-08-28T11:22:53.021Z,2.13
2022-08-28T11:25:26.587Z,2.60
2022-08-28T11:28:24.158Z,2.33
2022-08-28T11:31:06.235Z,2.40
2022-08-28T11:33:50.459Z,2.20
2022-08-28T11:36:19.813Z,2.25
2022-08-28T11:38:46.925Z,3.10
2022-08-28T11:41:14.566Z,2.83
2022-08-28T11:43:45.706Z,2.92
2022-08-28T11:46:25.494Z,2.90
2022-08-28T11:48:55.092Z,2.60
2022-08-28T11:51:35.405Z,2.70
2022-08-28T11:54:07.873Z,2.63
2022-08-28T11:56:37.638Z,2.70
2022-08-28T11:59:08.163Z,2.90
2022-08-28T12:01:36.924Z,3.00
2022-08-28T12:04:14.946Z,3.05
2022-08-28T12:06:49.231Z,2.78
2022-08-28T12:09:47.672Z,2.90
2022-08-28T12:12:23.325Z,3.40
2022-08-28T12:14:56.039Z,3.10
2022-08-28T12:17:22.732Z,3.13
2022-08-28T12:19:58.893Z,2.85
2022-08-28T12:22:40.211Z,3.47
2022-08-28T12:25:15.474Z,3.40
2022-08-28T12:27:42.186Z,4.10
2022-08-28T12:30:09.030Z,4.20
2022-08-28T12:32:56.665Z,3.40
2022-08-28T12:35:26.537Z,3.22
2022-08-28T12:37:53.722Z,3.45
2022-08-28T12:40:34.252Z,3.47
2022-08-28T12:43:04.326Z,3.92
2022-08-28T12:45:39.285Z,4.13
2022-08-28T12:48:17.401Z,3.80
2022-08-28T12:50:44.253Z,3.75
2022-08-28T12:53:16.274Z,4.55
2022-08-28T12:55:45.940Z,4.15
2022-08-28T12:58:27.738Z,4.05
2022-08-28T13:00:57.796Z,4.38
2022-08-28T13:03:24.942Z,4.20
2022-08-28T13:05:58.486Z,4.60
2022-08-28T13:08:25.231Z,4.70
2022-08-28T13:10:52.062Z,4.13
2022-08-28T13:13:32.560Z,4.57
2022-08-28T13:16:01.604Z,4.15
2022-08-28T13:18:42.159Z,4.10
2022-08-28T13:21:35.193Z,4.20
2022-08-28T13:24:22.125Z,4.50
2022-08-28T13:26:51.468Z,4.28
2022-08-28T13:29:24.079Z,3.92
2022-08-28T13:32:00.781Z,4.13
2022-08-28T13:34:34.213Z,3.90
2022-08-28T13:37:04.219Z,4.10
2022-08-28T13:39:41.286Z,4.30
2022-08-28T13:42:13.259Z,4.50
2022-08-28T13:44:49.165Z,4.00
2022-08-28T13:47:16.887Z,4.40
2022-08-28T13:49:43.660Z,4.28
2022-08-28T13:52:10.624Z,4.20
2022-08-28T13:54:37.916Z,4.20
2022-08-28T13:57:09.257Z,3.97
2022-08-28T13:59:35.900Z,3.63
2022-08-28T14:02:24.359Z,3.90
2022-08-28T14:04:51.135Z,4.15
2022-08-28T14:07:17.847Z,4.18
2022-08-28T14:09:44.461Z,4.57
2022-08-28T14:12:11.345Z,4.60
2022-08-28T14:14:38.487Z,4.32
2022-08-28T14:17:06.472Z,4.60
2022-08-28T14:19:34.049Z,4.50
2022-08-28T14:22:00.733Z,4.43
2022-08-28T14:24:27.771Z,4.18
2022-08-28T14:26:54.666Z,3.72
2022-08-28T14:29:22.008Z,3.50
2022-08-28T14:31:48.956Z,3.83
2022-08-28T14:34:18.519Z,3.45
2022-08-28T14:36:45.964Z,3.50
2022-08-28T14:39:13.277Z,3.03
2022-08-28T14:41:46.127Z,3.25
2022-08-28T14:44:13.243Z,3.50
2022-08-28T14:46:43.051Z,3.35
2022-08-28T14:49:11.513Z,3.00
2022-08-28T14:51:39.440Z,3.47
2022-08-28T14:54:07.600Z,3.30
2022-08-28T14:56:34.697Z,3.40
2022-08-28T14:59:02.229Z,3.38
2022-08-28T15:01:39.509Z,3.35
2022-08-28T15:04:11.083Z,3.47
2022-08-28T15:06:38.376Z,3.40
2022-08-28T15:09:05.129Z,3.63
2022-08-28T15:11:31.907Z,3.40
2022-08-28T15:13:58.740Z,3.35
2022-08-28T15:16:30.377Z,3.40
2022-08-28T15:18:58.470Z,3.38
2022-08-28T15:21:33.983Z,3.58
2022-08-28T15:24:03.306Z,3.47
2022-08-28T15:26:31.179Z,3.50
2022-08-28T15:29:02.438Z,3.63
2022-08-28T15:31:31.286Z,3.80
2022-08-28T15:33:58.958Z,3.88
2022-08-28T15:36:25.614Z,3.70
2022-08-28T15:39:10.581Z,4.28
2022-08-28T15:41:38.059Z,4.22
2022-08-28T15:44:05.483Z,4.53
2022-08-28T15:46:34.285Z,4.55
2022-08-28T15:49:02.142Z,4.90
2022-08-28T15:51:30.241Z,5.10
2022-08-28T15:53:56.918Z,5.07
2022-08-28T15:56:23.932Z,5.47
2022-08-28T15:58:51.954Z,5.43
2022-08-28T16:01:20.499Z,5.43
2022-08-28T16:03:47.182Z,5.43
2022-08-28T16:06:19.974Z,5.93
2022-08-28T16:08:47.193Z,5.18
2022-08-28T16:11:23.009Z,5.53
2022-08-28T16:13:50.532Z,5.70
2022-08-28T16:16:17.679Z,5.65
2022-08-28T16:18:45.147Z,5.57
2022-08-28T16:21:12.965Z,5.88
2022-08-28T16:23:40.103Z,5.70
2022-08-28T16:26:08.407Z,5.78
2022-08-28T16:28:35.996Z,5.90
2022-08-28T16:31:07.380Z,5.97
2022-08-28T16:33:35.432Z,6.28
2022-08-28T16:36:11.167Z,5.95
2022-08-28T16:38:42.448Z,5.50
2022-08-28T16:41:21.749Z,5.60
2022-08-28T16:43:49.288Z,5.40
2022-08-28T16:46:19.307Z,5.55
2022-08-28T16:48:46.530Z,5.95
2022-08-28T16:51:13.860Z,6.45
2022-08-28T16:53:42.487Z,6.35
2022-08-28T16:56:14.122Z,6.53
2022-08-28T16:58:42.390Z,6.13
2022-08-28T17:01:10.834Z,6.03
2022-08-28T17:03:38.649Z,5.82
2022-08-28T17:06:17.999Z,4.63
2022-08-28T17:08:44.861Z,4.30
2022-08-28T17:11:11.833Z,3.67
2022-08-28T17:13:38.771Z,3.55
2022-08-28T17:16:06.193Z,2.70
2022-08-28T17:18:32.977Z,2.25
2022-08-28T17:21:18.313Z,2.25
2022-08-28T17:23:46.518Z,2.47
2022-08-28T17:26:14.509Z,2.92
2022-08-28T17:28:41.866Z,2.53
2022-08-28T17:31:08.632Z,2.45
2022-08-28T17:33:39.331Z,2.42
2022-08-28T17:36:15.334Z,2.85
2022-08-28T17:38:54.504Z,2.20
2022-08-28T17:41:21.117Z,2.17
2022-08-28T17:43:47.967Z,2.15
2022-08-28T17:46:14.617Z,2.40
2022-08-28T17:48:41.478Z,2.03
2022-08-28T17:51:19.532Z,1.80
2022-08-28T17:53:54.186Z,2.03
2022-08-28T17:56:21.451Z,2.20
2022-08-28T17:59:02.751Z,1.83
2022-08-28T18:01:29.389Z,2.00
2022-08-28T18:03:56.131Z,2.10
2022-08-28T18:06:22.842Z,1.83
2022-08-28T18:08:51.800Z,2.07
2022-08-28T18:11:19.168Z,1.83
2022-08-28T18:13:46.561Z,1.90
2022-08-28T18:16:13.527Z,2.13
2022-08-28T18:18:41.446Z,2.40
2022-08-28T18:21:10.321Z,2.40
2022-08-28T18:23:37.098Z,2.33
2022-08-28T18:26:03.702Z,2.50
2022-08-28T18:28:30.411Z,2.33
2022-08-28T18:30:57.083Z,2.53
2022-08-28T18:33:24.250Z,2.70
2022-08-28T18:35:51.928Z,2.67
2022-08-28T18:38:19.685Z,3.00
2022-08-28T18:40:46.743Z,2.67
2022-08-28T18:43:13.813Z,2.73
2022-08-28T18:45:40.601Z,3.07
2022-08-28T18:48:10.580Z,2.80
2022-08-28T18:50:37.949Z,2.70
2022-08-28T18:53:05.492Z,2.70
2022-08-28T18:55:32.666Z,2.63
2022-08-28T18:58:00.762Z,2.92
2022-08-28T19:00:27.963Z,2.65
2022-08-28T19:02:54.851Z,2.50
2022-08-28T19:05:21.820Z,2.73
2022-08-28T19:07:48.858Z,2.80
2022-08-28T19:10:32.812Z,2.65
2022-08-28T19:13:01.115Z,2.55
2022-08-28T19:15:28.279Z,2.40
2022-08-28T19:17:55.088Z,2.80
2022-08-28T19:20:22.265Z,2.60
2022-08-28T19:22:49.067Z,2.85
2022-08-28T19:25:27.945Z,2.80
2022-08-28T19:27:59.620Z,2.90
2022-08-28T19:30:28.392Z,2.90
2022-08-28T19:32:55.010Z,2.83
2022-08-28T19:35:24.130Z,2.75
2022-08-28T19:37:52.268Z,2.97
2022-08-28T19:40:20.522Z,2.77
2022-08-28T19:42:47.765Z,2.90
2022-08-28T19:45:14.988Z,3.10
2022-08-28T19:47:41.949Z,2.93
2022-08-28T19:50:10.221Z,2.70
2022-08-28T19:52:36.917Z,3.17
2022-08-28T19:55:05.725Z,2.92
2022-08-28T19:57:33.415Z,3.10
2022-08-28T20:00:00.355Z,3.00
2022-08-28T20:02:28.155Z,2.80
2022-08-28T20:04:55.363Z,3.10
2022-08-28T20:07:22.196Z,3.00
2022-08-28T20:09:48.826Z,2.87
2022-08-28T20:12:15.400Z,3.20
2022-08-28T20:14:42.639Z,2.97
2022-08-28T20:17:09.393Z,3.00
2022-08-28T20:19:36.105Z,3.00
2022-08-28T20:22:03.806Z,3.40
2022-08-28T20:24:30.489Z,3.50
2022-08-28T20:26:57.341Z,3.37
2022-08-28T20:29:25.034Z,3.20
2022-08-28T20:31:52.007Z,3.40
2022-08-28T20:34:19.207Z,3.50
2022-08-28T20:36:46.476Z,3.57
2022-08-28T20:39:14.744Z,3.43
2022-08-28T20:41:42.522Z,3.80
2022-08-28T20:44:10.551Z,3.63
2022-08-28T20:46:41.222Z,3.67
2022-08-28T20:49:12.423Z,3.83
2022-08-28T20:51:58.848Z,3.80
2022-08-28T20:54:28.636Z,4.20
2022-08-28T20:56:57.239Z,3.80
2022-08-28T20:59:26.357Z,4.17
2022-08-28T21:02:05.288Z,4.10
2022-08-28T21:04:35.792Z,4.30
2022-08-28T21:07:03.271Z,4.30
2022-08-28T21:09:35.897Z,4.60
2022-08-28T21:12:17.131Z,4.50
2022-08-28T21:14:44.335Z,4.20
2022-08-28T21:17:20.822Z,4.63
2022-08-28T21:19:55.931Z,4.13
2022-08-28T21:22:23.013Z,4.70
2022-08-28T21:24:50.045Z,4.33
2022-08-28T21:27:16.607Z,4.70
2022-08-28T21:29:45.848Z,4.30
2022-08-28T21:32:12.497Z,4.40
2022-08-28T21:34:39.135Z,4.50
2022-08-28T21:37:06.422Z,4.33
2022-08-28T21:39:33.425Z,4.73
2022-08-28T21:42:00.021Z,4.40
2022-08-28T21:44:26.626Z,4.63
2022-08-28T21:46:53.375Z,4.13
2022-08-28T21:49:20.028Z,4.90
2022-08-28T21:51:47.089Z,4.90
2022-08-28T21:54:14.037Z,4.63
2022-08-28T21:56:40.731Z,4.37
2022-08-28T21:59:07.383Z,5.00
2022-08-28T22:01:34.202Z,5.00
2022-08-28T22:04:00.919Z,5.17
2022-08-28T22:06:27.575Z,4.70
2022-08-28T22:08:55.675Z,5.23
2022-08-28T22:11:25.101Z,5.17
2022-08-28T22:13:53.001Z,4.87
2022-08-28T22:16:20.397Z,4.97
2022-08-28T22:18:47.286Z,5.40
2022-08-28T22:21:54.725Z,5.53
2022-08-28T22:24:21.345Z,5.20
2022-08-28T22:26:48.397Z,5.20
2022-08-28T22:29:15.056Z,5.20
2022-08-28T22:31:46.046Z,5.03
2022-08-28T22:34:13.355Z,4.93
2022-08-28T22:36:39.986Z,5.00
2022-08-28T22:39:06.837Z,4.67
2022-08-28T22:41:33.515Z,5.10
2022-08-28T22:44:00.198Z,4.70
2022-08-28T22:46:28.312Z,5.17
2022-08-28T22:48:55.018Z,4.37
2022-08-28T22:51:21.673Z,4.60
2022-08-28T22:53:48.577Z,4.30
2022-08-28T22:56:16.275Z,4.80
2022-08-28T22:58:42.899Z,4.50
2022-08-28T23:01:13.503Z,4.50
2022-08-28T23:03:40.626Z,4.70
2022-08-28T23:06:07.669Z,5.00
2022-08-28T23:08:34.371Z,4.37
2022-08-28T23:11:01.297Z,4.80
2022-08-28T23:13:28.709Z,4.20
2022-08-28T23:15:55.411Z,4.40
2022-08-28T23:18:22.277Z,4.73
2022-08-28T23:20:50.517Z,4.90
2022-08-28T23:23:17.381Z,4.30
2022-08-28T23:25:44.148Z,4.73
2022-08-28T23:28:10.723Z,4.80
2022-08-28T23:30:38.989Z,5.10
2022-08-28T23:33:08.509Z,4.87
2022-08-28T23:35:35.867Z,4.70
2022-08-28T23:38:04.278Z,4.77
2022-08-28T23:40:33.140Z,4.93
2022-08-28T23:43:02.799Z,4.73
2022-08-28T23:45:29.555Z,5.10
2022-08-28T23:47:56.517Z,5.20
2022-08-28T23:50:23.259Z,5.10
2022-08-28T23:52:50.256Z,5.37
2022-08-28T23:55:18.693Z,5.13
2022-08-28T23:57:45.836Z,5.00
